createdAt,value
2019-05-11T00:00:00.194Z,99253.25
2019-05-11T00:02:29.026Z,99262.42
2019-05-11T00:04:57.868Z,99264.34
2019-05-11T00:07:26.673Z,99256.42
2019-05-11T00:09:58.013Z,99259.58
2019-05-11T00:12:26.138Z,99260.81
2019-05-11T00:14:54.924Z,99260.44
2019-05-11T00:17:24.331Z,99263.98
2019-05-11T00:19:53.225Z,99258.81
2019-05-11T00:22:22.031Z,99262.72
2019-05-11T00:24:50.829Z,99261.11
2019-05-11T00:27:19.705Z,99257.55
2019-05-11T00:29:48.510Z,99256.08
2019-05-11T00:32:17.384Z,99254.77
2019-05-11T00:34:46.353Z,99245.75
2019-05-11T00:37:15.204Z,99246.98
2019-05-11T00:39:44.013Z,99250.50
2019-05-11T00:42:12.996Z,99251.73
2019-05-11T00:44:41.811Z,99247.55
2019-05-11T00:47:10.612Z,99252.52
2019-05-11T00:49:39.588Z,99253.05
2019-05-11T00:52:08.389Z,99252.59
2019-05-11T00:54:37.198Z,99251.91
2019-05-11T00:57:06.250Z,99255.09
2019-05-11T00:59:35.048Z,99260.66
2019-05-11T01:02:03.843Z,99259.69
2019-05-11T01:04:32.782Z,99265.31
2019-05-11T01:07:01.626Z,99257.76
2019-05-11T01:09:32.012Z,99261.91
2019-05-11T01:12:00.939Z,99261.75
2019-05-11T01:14:29.744Z,99266.70
2019-05-11T01:16:58.739Z,99263.16
2019-05-11T01:19:27.623Z,99263.30
2019-05-11T01:21:56.421Z,99264.55
2019-05-11T01:24:25.219Z,99263.59
2019-05-11T01:26:54.078Z,99265.37
2019-05-11T01:29:22.871Z,99263.52
2019-05-11T01:31:51.676Z,99262.57
2019-05-11T01:34:20.644Z,99268.20
2019-05-11T01:36:49.448Z,99271.59
2019-05-11T01:39:18.571Z,99272.51
2019-05-11T01:41:47.536Z,99277.70
2019-05-11T01:44:16.347Z,99278.07
2019-05-11T01:46:45.282Z,99273.50
2019-05-11T01:49:14.152Z,99276.38
2019-05-11T01:51:42.956Z,99275.09
2019-05-11T01:54:11.763Z,99278.58
2019-05-11T01:56:40.735Z,99279.05
2019-05-11T01:59:09.540Z,99287.33
2019-05-11T02:01:38.344Z,99289.84
2019-05-11T02:04:07.394Z,99287.76
2019-05-11T02:06:36.215Z,99286.04
2019-05-11T02:09:07.492Z,99287.72
2019-05-11T02:11:38.004Z,99288.61
2019-05-11T02:14:07.034Z,99294.66
2019-05-11T02:16:38.885Z,99291.70
2019-05-11T02:19:08.344Z,99289.98
2019-05-11T02:21:37.142Z,99289.67
2019-05-11T02:24:05.940Z,99287.53
2019-05-11T02:26:34.916Z,99285.10
2019-05-11T02:29:03.865Z,99290.27
2019-05-11T02:31:32.692Z,99289.77
2019-05-11T02:34:01.713Z,99298.86
2019-05-11T02:36:30.513Z,99296.59
2019-05-11T02:39:03.839Z,99298.14
2019-05-11T02:41:36.076Z,99296.36
2019-05-11T02:44:00.886Z,99299.56
2019-05-11T02:46:30.152Z,99304.92
2019-05-11T02:49:00.712Z,99305.76
2019-05-11T02:51:30.856Z,99307.34
2019-05-11T02:54:02.836Z,99316.81
2019-05-11T02:56:31.818Z,99315.25
2019-05-11T02:59:00.714Z,99318.43
2019-05-11T03:01:31.128Z,99320.60
2019-05-11T03:04:00.139Z,99314.33
2019-05-11T03:06:28.986Z,99323.24
2019-05-11T03:08:58.322Z,99323.83
2019-05-11T03:11:27.313Z,99322.05
2019-05-11T03:13:56.094Z,99322.52
2019-05-11T03:16:24.902Z,99326.74
2019-05-11T03:18:53.879Z,99326.99
2019-05-11T03:21:22.673Z,99331.08
2019-05-11T03:23:51.475Z,99336.89
2019-05-11T03:26:20.331Z,99337.26
2019-05-11T03:28:49.133Z,99335.48
2019-05-11T03:31:17.942Z,99344.73
2019-05-11T03:33:47.010Z,99342.62
2019-05-11T03:36:15.811Z,99347.02
2019-05-11T03:38:44.624Z,99351.16
2019-05-11T03:41:13.592Z,99357.41
2019-05-11T03:43:43.954Z,99358.06
2019-05-11T03:46:12.750Z,99359.89
2019-05-11T03:48:41.590Z,99362.28
2019-05-11T03:51:10.587Z,99368.39
2019-05-11T03:53:39.386Z,99368.69
2019-05-11T03:56:08.334Z,99365.00
2019-05-11T03:58:37.142Z,99368.28
2019-05-11T04:01:05.944Z,99362.14
2019-05-11T04:03:34.889Z,99354.63
2019-05-11T04:06:03.696Z,99355.50
2019-05-11T04:08:32.489Z,99360.88
2019-05-11T04:11:01.956Z,99371.25
2019-05-11T04:13:30.684Z,99373.84
2019-05-11T04:15:59.406Z,99370.47
2019-05-11T04:18:28.301Z,99373.45
2019-05-11T04:20:58.568Z,99382.70
2019-05-11T04:23:27.307Z,99380.57
2019-05-11T04:25:58.006Z,99386.30
2019-05-11T04:28:26.725Z,99385.68
2019-05-11T04:30:55.455Z,99385.67
2019-05-11T04:33:24.233Z,99388.08
2019-05-11T04:35:52.960Z,99390.63
2019-05-11T04:38:21.688Z,99398.05
2019-05-11T04:40:50.769Z,99408.73
2019-05-11T04:43:19.493Z,99405.61
2019-05-11T04:45:48.219Z,99408.69
2019-05-11T04:48:17.099Z,99411.14
2019-05-11T04:50:45.817Z,99409.58
2019-05-11T04:53:14.655Z,99413.38
2019-05-11T04:55:43.507Z,99411.63
2019-05-11T04:58:12.225Z,99418.36
2019-05-11T05:00:42.070Z,99414.06
2019-05-11T05:03:10.915Z,99420.57
2019-05-11T05:05:39.629Z,99422.68
2019-05-11T05:08:09.928Z,99430.22
2019-05-11T05:10:39.190Z,99431.98
2019-05-11T05:13:10.466Z,99444.48
2019-05-11T05:15:38.363Z,99441.33
2019-05-11T05:18:07.267Z,99449.55
2019-05-11T05:20:35.996Z,99450.77
2019-05-11T05:23:04.718Z,99448.48
2019-05-11T05:25:33.602Z,99451.97
2019-05-11T05:28:02.323Z,99450.23
2019-05-11T05:30:31.650Z,99454.62
2019-05-11T05:33:00.497Z,99462.10
2019-05-11T05:35:29.214Z,99458.98
2019-05-11T05:37:57.937Z,99465.05
2019-05-11T05:40:26.806Z,99466.41
2019-05-11T05:42:56.480Z,99462.22
2019-05-11T05:45:25.214Z,99462.05
2019-05-11T05:47:54.126Z,99456.80
2019-05-11T05:50:22.835Z,99459.85
2019-05-11T05:52:51.554Z,99452.32
2019-05-11T05:55:20.439Z,99455.22
2019-05-11T05:57:49.162Z,99452.24
2019-05-11T06:00:18.087Z,99455.22
2019-05-11T06:02:48.334Z,99464.55
2019-05-11T06:05:17.063Z,99469.71
2019-05-11T06:07:45.763Z,99470.44
2019-05-11T06:10:14.938Z,99473.89
2019-05-11T06:12:43.662Z,99477.91
2019-05-11T06:15:12.591Z,99476.36
2019-05-11T06:17:41.349Z,99479.42
2019-05-11T06:20:10.546Z,99474.14
2019-05-11T06:22:39.248Z,99481.48
2019-05-11T06:25:08.330Z,99485.59
2019-05-11T06:27:37.051Z,99482.63
2019-05-11T06:30:08.906Z,99478.49
2019-05-11T06:32:37.776Z,99482.56
2019-05-11T06:35:08.312Z,99486.31
2019-05-11T06:37:37.045Z,99488.86
2019-05-11T06:40:09.108Z,99494.00
2019-05-11T06:42:37.842Z,99486.19
2019-05-11T06:45:10.122Z,99497.22
2019-05-11T06:47:38.885Z,99486.90
2019-05-11T06:50:08.020Z,99496.11
2019-05-11T06:52:36.742Z,99496.02
2019-05-11T06:55:09.532Z,99498.86
2019-05-11T06:57:38.317Z,99497.28
2019-05-11T07:00:07.471Z,99499.09
2019-05-11T07:02:36.458Z,99498.34
2019-05-11T07:05:06.989Z,99499.34
2019-05-11T07:07:47.170Z,99502.35
2019-05-11T07:10:07.136Z,99498.17
2019-05-11T07:12:35.866Z,99500.73
2019-05-11T07:15:06.400Z,99496.50
2019-05-11T07:17:35.242Z,99488.35
2019-05-11T07:20:05.262Z,99488.94
2019-05-11T07:22:33.982Z,99492.95
2019-05-11T07:25:02.742Z,99487.42
2019-05-11T07:27:31.455Z,99491.05
2019-05-11T07:30:00.176Z,99487.05
2019-05-11T07:32:29.455Z,99491.66
2019-05-11T07:34:58.270Z,99494.92
2019-05-11T07:37:27.965Z,99503.08
2019-05-11T07:39:58.054Z,99503.14
2019-05-11T07:42:28.561Z,99498.39
2019-05-11T07:44:58.214Z,99503.55
2019-05-11T07:47:27.888Z,99505.05
2019-05-11T07:49:58.069Z,99504.89
2019-05-11T07:52:28.731Z,99509.33
2019-05-11T07:54:58.101Z,99515.44
2019-05-11T07:57:28.441Z,99513.66
2019-05-11T07:59:58.837Z,99508.88
2019-05-11T08:02:29.266Z,99504.03
2019-05-11T08:04:58.765Z,99513.47
2019-05-11T08:07:28.491Z,99514.59
2019-05-11T08:09:58.709Z,99515.82
2019-05-11T08:12:28.451Z,99509.59
2019-05-11T08:15:05.682Z,99512.61
2019-05-11T08:17:28.638Z,99513.70
2019-05-11T08:19:58.143Z,99515.26
2019-05-11T08:22:28.413Z,99504.66
2019-05-11T08:24:58.602Z,99511.58
2019-05-11T08:27:28.595Z,99517.64
2019-05-11T08:29:58.063Z,99508.00
2019-05-11T08:32:28.671Z,99514.03
2019-05-11T08:34:58.097Z,99513.84
2019-05-11T08:37:28.363Z,99507.09
2019-05-11T08:39:58.549Z,99508.16
2019-05-11T08:42:28.953Z,99507.39
2019-05-11T08:45:14.798Z,99495.63
2019-05-11T08:47:28.493Z,99494.56
2019-05-11T08:53:09.196Z,99502.78
2019-05-11T08:55:38.383Z,99494.98
2019-05-11T08:58:07.903Z,99493.34
2019-05-11T09:00:38.911Z,99494.19
2019-05-11T09:03:08.541Z,99498.56
2019-05-11T09:05:38.486Z,99494.14
2019-05-11T09:08:08.218Z,99494.75
2019-05-11T09:10:39.694Z,99492.46
2019-05-11T09:13:08.122Z,99497.48
2019-05-11T09:15:40.496Z,99499.66
2019-05-11T09:18:08.413Z,99494.38
2019-05-11T09:20:37.917Z,99494.97
2019-05-11T09:23:08.168Z,99497.42
2019-05-11T09:25:38.516Z,99501.50
2019-05-11T09:28:08.586Z,99492.67
2019-05-11T09:30:37.862Z,99492.05
2019-05-11T09:33:08.570Z,99486.87
2019-05-11T09:35:49.639Z,99495.16
2019-05-11T09:38:08.131Z,99498.37
2019-05-11T09:40:38.568Z,99493.79
2019-05-11T09:43:08.559Z,99497.34
2019-05-11T09:45:47.495Z,99487.95
2019-05-11T09:48:08.743Z,99482.22
2019-05-11T09:50:38.842Z,99480.66
2019-05-11T09:53:08.482Z,99487.30
2019-05-11T09:55:38.858Z,99486.10
2019-05-11T09:58:08.495Z,99478.67
2019-05-11T10:00:38.823Z,99491.95
2019-05-11T10:03:08.346Z,99481.69
2019-05-11T10:05:38.245Z,99471.59
2019-05-11T10:08:07.965Z,99480.50
2019-05-11T10:10:38.294Z,99481.31
2019-05-11T10:13:08.070Z,99469.36
2019-05-11T10:15:38.556Z,99465.20
2019-05-11T10:18:08.226Z,99459.91
2019-05-11T10:20:39.258Z,99468.03
2019-05-11T10:23:08.382Z,99467.41
2019-05-11T10:25:39.066Z,99464.44
2019-05-11T10:28:08.690Z,99468.97
2019-05-11T10:30:38.612Z,99463.34
2019-05-11T10:33:08.302Z,99458.77
2019-05-11T10:35:37.837Z,99460.08
2019-05-11T10:38:09.023Z,99460.87
2019-05-11T10:40:38.779Z,99458.14
2019-05-11T10:43:08.016Z,99453.88
2019-05-11T10:45:38.419Z,99462.94
2019-05-11T10:48:08.858Z,99458.20
2019-05-11T10:50:38.216Z,99468.73
2019-05-11T10:53:08.006Z,99456.62
2019-05-11T10:55:38.648Z,99465.25
2019-05-11T10:58:08.600Z,99461.67
2019-05-11T11:00:38.878Z,99461.39
2019-05-11T11:03:08.541Z,99454.37
2019-05-11T11:05:38.426Z,99463.83
2019-05-11T11:08:08.253Z,99457.50
2019-05-11T11:10:37.894Z,99461.02
2019-05-11T11:13:08.332Z,99457.84
2019-05-11T11:15:38.076Z,99455.73
2019-05-11T11:18:08.620Z,99460.85
2019-05-11T11:20:38.398Z,99449.09
2019-05-11T11:23:08.806Z,99450.01
2019-05-11T11:25:37.737Z,99449.38
2019-05-11T11:28:08.451Z,99428.84
2019-05-11T11:30:37.842Z,99428.84
2019-05-11T11:33:08.020Z,99439.89
2019-05-11T11:35:38.486Z,99434.16
2019-05-11T11:38:08.673Z,99449.58
2019-05-11T11:40:38.676Z,99439.16
2019-05-11T11:43:08.625Z,99436.18
2019-05-11T11:45:40.816Z,99427.20
2019-05-11T11:48:09.544Z,99431.09
2019-05-11T11:50:38.565Z,99423.52
2019-05-11T11:53:08.429Z,99427.25
2019-05-11T11:55:39.008Z,99432.64
2019-05-11T11:58:08.397Z,99441.70
2019-05-11T12:00:39.179Z,99441.70
2019-05-11T12:03:08.119Z,99426.73
2019-05-11T12:05:38.645Z,99422.83
2019-05-11T12:08:08.348Z,99433.50
2019-05-11T12:10:37.972Z,99432.25
2019-05-11T12:13:08.623Z,99425.12
2019-05-11T12:15:38.760Z,99423.94
2019-05-11T12:18:08.224Z,99415.82
2019-05-11T12:20:38.930Z,99414.19
2019-05-11T12:23:08.735Z,99408.14
2019-05-11T12:25:40.496Z,99401.64
2019-05-11T12:28:08.232Z,99399.92
2019-05-11T12:30:39.223Z,99399.97
2019-05-11T12:33:08.346Z,99394.73
2019-05-11T12:35:37.756Z,99396.14
2019-05-11T12:38:07.760Z,99392.63
2019-05-11T12:40:38.703Z,99376.36
2019-05-11T12:43:08.161Z,99384.48
2019-05-11T12:45:37.655Z,99383.27
2019-05-11T12:48:08.832Z,99376.27
2019-05-11T12:50:37.883Z,99369.84
2019-05-11T12:53:08.018Z,99378.08
2019-05-11T12:55:37.995Z,99369.81
2019-05-11T12:58:08.613Z,99370.63
2019-05-11T13:00:39.137Z,99368.41
2019-05-11T13:03:08.227Z,99365.23
2019-05-11T13:05:37.834Z,99371.36
2019-05-11T13:08:08.054Z,99374.56
2019-05-11T13:10:37.629Z,99375.80
2019-05-11T13:13:08.686Z,99371.52
2019-05-11T13:15:38.749Z,99357.49
2019-05-11T13:18:08.395Z,99360.83
2019-05-11T13:20:37.828Z,99363.97
2019-05-11T13:23:07.954Z,99363.06
2019-05-11T13:25:38.765Z,99364.80
2019-05-11T13:28:08.587Z,99357.91
2019-05-11T13:30:38.181Z,99360.20
2019-05-11T13:33:08.532Z,99354.68
2019-05-11T13:35:37.747Z,99353.54
2019-05-11T13:38:08.759Z,99353.39
2019-05-11T13:40:38.205Z,99347.44
2019-05-11T13:43:08.343Z,99347.53
2019-05-11T13:45:38.767Z,99349.45
2019-05-11T13:48:08.417Z,99347.14
2019-05-11T13:50:38.680Z,99340.39
2019-05-11T13:53:07.871Z,99350.27
2019-05-11T13:55:38.552Z,99345.39
2019-05-11T13:58:08.292Z,99346.52
2019-05-11T14:00:38.040Z,99344.08
2019-05-11T14:03:08.322Z,99348.08
2019-05-11T14:05:37.833Z,99352.13
2019-05-11T14:08:08.189Z,99347.94
2019-05-11T14:10:38.361Z,99338.83
2019-05-11T14:13:08.828Z,99344.78
2019-05-11T14:15:37.966Z,99346.63
2019-05-11T14:18:09.381Z,99345.05
2019-05-11T14:20:37.884Z,99341.38
2019-05-11T14:23:07.711Z,99342.87
2019-05-11T14:25:39.638Z,99343.36
2019-05-11T14:28:09.026Z,99338.22
2019-05-11T14:30:38.535Z,99341.40
2019-05-11T14:33:08.769Z,99334.57
2019-05-11T14:35:38.443Z,99335.98
2019-05-11T14:38:08.099Z,99338.39
2019-05-11T14:40:38.717Z,99341.59
2019-05-11T14:43:08.378Z,99341.66
2019-05-11T14:45:38.108Z,99350.38
2019-05-11T14:48:22.192Z,99343.52
2019-05-11T14:50:38.579Z,99346.14
2019-05-11T14:53:08.602Z,99351.34
2019-05-11T14:55:38.065Z,99346.00
2019-05-11T14:58:08.278Z,99345.22
2019-05-11T15:00:39.182Z,99352.37
2019-05-11T15:03:08.020Z,99355.80
2019-05-11T15:05:37.904Z,99354.55
2019-05-11T15:08:08.727Z,99358.09
2019-05-11T15:10:38.289Z,99363.66
2019-05-11T15:13:08.024Z,99360.89
2019-05-11T15:15:39.262Z,99360.34
2019-05-11T15:18:08.480Z,99359.84
2019-05-11T15:20:38.762Z,99361.92
2019-05-11T15:23:08.892Z,99353.86
2019-05-11T15:25:38.351Z,99357.26
2019-05-11T15:28:08.871Z,99355.64
2019-05-11T15:30:38.139Z,99353.65
2019-05-11T15:33:07.785Z,99359.25
2019-05-11T15:35:37.745Z,99358.13
2019-05-11T15:38:08.771Z,99368.84
2019-05-11T15:40:38.282Z,99365.38
2019-05-11T15:43:08.704Z,99368.47
2019-05-11T15:45:38.141Z,99368.81
2019-05-11T15:48:08.417Z,99361.22
2019-05-11T15:50:39.735Z,99356.58
2019-05-11T15:53:09.675Z,99358.67
2019-05-11T15:55:42.129Z,99366.92
2019-05-11T15:58:08.832Z,99364.11
2019-05-11T16:00:39.975Z,99372.07
2019-05-11T16:03:08.393Z,99369.97
2019-05-11T16:05:37.132Z,99369.80
2019-05-11T16:08:08.407Z,99374.02
2019-05-11T16:10:38.462Z,99376.69
2019-05-11T16:13:08.950Z,99381.55
2019-05-11T16:15:38.365Z,99378.45
2019-05-11T16:18:08.324Z,99373.34
2019-05-11T16:20:37.285Z,99369.48
2019-05-11T16:23:06.113Z,99373.66
2019-05-11T16:25:38.198Z,99374.80
2019-05-11T16:28:07.867Z,99380.57
2019-05-11T16:30:37.873Z,99385.39
2019-05-11T16:33:08.675Z,99385.77
2019-05-11T16:35:38.304Z,99384.74
2019-05-11T16:38:08.179Z,99382.06
2019-05-11T16:40:38.684Z,99383.58
2019-05-11T16:43:08.572Z,99390.55
2019-05-11T16:45:37.788Z,99383.57
2019-05-11T16:48:07.988Z,99384.91
2019-05-11T16:50:38.359Z,99392.87
2019-05-11T16:53:07.353Z,99392.59
2019-05-11T16:55:37.694Z,99393.27
2019-05-11T16:58:08.360Z,99396.78
2019-05-11T17:00:39.349Z,99396.05
2019-05-11T17:03:07.803Z,99398.44
2019-05-11T17:05:38.245Z,99400.23
2019-05-11T17:08:08.087Z,99407.69
2019-05-11T17:10:36.973Z,99412.31
2019-05-11T17:13:05.699Z,99408.84
2019-05-11T17:15:34.487Z,99408.29
2019-05-11T17:18:04.802Z,99411.30
2019-05-11T17:20:34.431Z,99408.70
2019-05-11T17:23:03.333Z,99413.23
2019-05-11T17:25:32.081Z,99419.97
2019-05-11T17:28:00.844Z,99424.43
2019-05-11T17:30:29.736Z,99420.55
2019-05-11T17:32:59.359Z,99424.02
2019-05-11T17:35:28.275Z,99428.55
2019-05-11T17:37:57.178Z,99430.20
2019-05-11T17:40:28.322Z,99432.80
2019-05-11T17:42:58.509Z,99441.19
2019-05-11T17:45:26.900Z,99437.50
2019-05-11T17:47:55.656Z,99439.61
2019-05-11T17:50:24.380Z,99445.42
2019-05-11T17:52:54.707Z,99451.28
2019-05-11T17:55:23.422Z,99458.18
2019-05-11T17:57:54.035Z,99461.33
2019-05-11T18:00:22.997Z,99466.82
2019-05-11T18:02:51.725Z,99470.24
2019-05-11T18:05:20.455Z,99478.19
2019-05-11T18:07:49.337Z,99481.33
2019-05-11T18:10:18.449Z,99486.95
2019-05-11T18:12:48.589Z,99488.20
2019-05-11T18:15:18.814Z,99492.50
2019-05-11T18:17:48.390Z,99496.89
2019-05-11T18:20:21.393Z,99502.84
2019-05-11T18:22:49.273Z,99500.41
2019-05-11T18:25:18.559Z,99505.59
2019-05-11T18:27:48.272Z,99510.38
2019-05-11T18:30:17.513Z,99516.48
2019-05-11T18:32:48.791Z,99530.42
2019-05-11T18:35:19.066Z,99536.23
2019-05-11T18:37:47.781Z,99536.27
2019-05-11T18:40:18.624Z,99540.21
2019-05-11T18:42:48.749Z,99539.16
2019-05-11T18:45:18.886Z,99541.69
2019-05-11T18:47:49.014Z,99545.98
2019-05-11T18:50:29.812Z,99542.35
2019-05-11T18:52:49.187Z,99544.54
2019-05-11T18:55:18.941Z,99547.95
2019-05-11T18:57:48.952Z,99557.30
2019-05-11T19:00:19.755Z,99559.72
2019-05-11T19:02:49.377Z,99557.86
2019-05-11T19:05:18.702Z,99559.81
2019-05-11T19:07:48.367Z,99566.22
2019-05-11T19:10:17.435Z,99570.26
2019-05-11T19:12:48.791Z,99577.05
2019-05-11T19:15:18.760Z,99575.81
2019-05-11T19:17:49.117Z,99578.75
2019-05-11T19:20:19.331Z,99572.16
2019-05-11T19:22:48.221Z,99579.29
2019-05-11T19:25:18.209Z,99582.91
2019-05-11T19:27:50.313Z,99579.58
2019-05-11T19:30:18.557Z,99584.17
2019-05-11T19:32:48.753Z,99579.64
2019-05-11T19:35:20.884Z,99582.57
2019-05-11T19:37:48.675Z,99582.37
2019-05-11T19:40:17.670Z,99587.40
2019-05-11T19:42:59.323Z,99586.89
2019-05-11T19:45:29.461Z,99590.55
2019-05-11T19:47:58.540Z,99603.43
2019-05-11T19:50:27.518Z,99600.02
2019-05-11T19:52:58.014Z,99603.70
2019-05-11T19:55:28.505Z,99607.92
2019-05-11T19:57:57.410Z,99610.98
2019-05-11T20:00:26.131Z,99612.92
2019-05-11T20:02:54.859Z,99629.97
2019-05-11T20:05:23.720Z,99627.91
2019-05-11T20:07:52.447Z,99628.20
2019-05-11T20:10:21.182Z,99631.84
2019-05-11T20:12:50.031Z,99624.55
2019-05-11T20:15:19.324Z,99618.19
2019-05-11T20:17:48.827Z,99622.22
2019-05-11T20:20:18.720Z,99626.12
2019-05-11T20:22:48.405Z,99622.17
2019-05-11T20:25:18.505Z,99627.27
2019-05-11T20:27:48.851Z,99619.09
2019-05-11T20:30:19.060Z,99614.56
2019-05-11T20:32:49.625Z,99613.55
2019-05-11T20:35:20.222Z,99619.50
2019-05-11T20:37:48.940Z,99616.73
2019-05-11T20:40:18.354Z,99619.98
2019-05-11T20:42:48.513Z,99618.30
2019-05-11T20:45:18.727Z,99616.00
2019-05-11T20:47:50.267Z,99613.83
2019-05-11T20:50:19.148Z,99615.39
2019-05-11T20:52:48.571Z,99613.86
2019-05-11T20:55:18.222Z,99622.14
2019-05-11T20:57:48.413Z,99615.65
2019-05-11T21:00:18.661Z,99618.73
2019-05-11T21:02:48.710Z,99617.26
2019-05-11T21:05:18.383Z,99620.08
2019-05-11T21:07:47.283Z,99618.75
2019-05-11T21:10:16.209Z,99619.47
2019-05-11T21:12:45.062Z,99622.16
2019-05-11T21:15:13.973Z,99620.61
2019-05-11T21:17:42.699Z,99622.16
2019-05-11T21:20:11.798Z,99617.59
2019-05-11T21:22:40.914Z,99621.08
2019-05-11T21:25:10.811Z,99621.62
2019-05-11T21:27:39.670Z,99633.42
2019-05-11T21:30:10.483Z,99631.28
2019-05-11T21:32:40.088Z,99634.98
2019-05-11T21:35:09.543Z,99643.36
2019-05-11T21:37:39.002Z,99640.98
2019-05-11T21:40:08.989Z,99637.36
2019-05-11T21:42:38.990Z,99634.91
2019-05-11T21:45:09.744Z,99642.08
2019-05-11T21:47:39.500Z,99643.23
2019-05-11T21:50:09.851Z,99646.96
2019-05-11T21:52:39.060Z,99645.79
2019-05-11T21:55:09.821Z,99648.97
2019-05-11T21:57:38.871Z,99652.91
2019-05-11T22:00:10.513Z,99653.74
2019-05-11T22:02:39.255Z,99654.98
2019-05-11T22:05:09.372Z,99658.29
2019-05-11T22:07:41.625Z,99656.34
2019-05-11T22:10:09.847Z,99663.30
2019-05-11T22:12:39.416Z,99660.59
2019-05-11T22:15:09.834Z,99648.64
2019-05-11T22:17:39.749Z,99655.81
2019-05-11T22:20:10.080Z,99652.86
2019-05-11T22:22:39.376Z,99658.53
2019-05-11T22:25:09.499Z,99656.59
2019-05-11T22:27:39.009Z,99656.52
2019-05-11T22:30:08.872Z,99660.67
2019-05-11T22:32:38.548Z,99655.67
2019-05-11T22:35:08.781Z,99654.64
2019-05-11T22:37:38.625Z,99662.66
2019-05-11T22:40:08.835Z,99650.37
2019-05-11T22:42:37.851Z,99653.78
2019-05-11T22:45:10.788Z,99654.56
2019-05-11T22:47:39.846Z,99651.66
2019-05-11T22:50:09.599Z,99659.67
2019-05-11T22:52:40.254Z,99659.44
2019-05-11T22:55:11.958Z,99655.03
2019-05-11T22:57:39.770Z,99649.70
2019-05-11T23:00:10.455Z,99651.09
2019-05-11T23:02:39.172Z,99644.13
2019-05-11T23:05:08.821Z,99645.52
2019-05-11T23:07:41.332Z,99647.21
2019-05-11T23:10:10.019Z,99641.30
2019-05-11T23:12:39.001Z,99643.53
2019-05-11T23:15:14.889Z,99647.09
2019-05-11T23:17:43.763Z,99639.80
2019-05-11T23:20:13.686Z,99639.15
2019-05-11T23:22:57.919Z,99637.61
2019-05-11T23:25:19.786Z,99644.45
2019-05-11T23:27:49.096Z,99639.80
2019-05-11T23:30:19.743Z,99637.19
2019-05-11T23:32:49.241Z,99637.77
2019-05-11T23:35:19.083Z,99634.28
2019-05-11T23:37:49.413Z,99633.51
2019-05-11T23:40:21.557Z,99630.87
2019-05-11T23:42:50.386Z,99630.28
2019-05-11T23:45:19.531Z,99630.34
2019-05-11T23:47:49.029Z,99636.30
2019-05-11T23:50:19.157Z,99630.70
2019-05-11T23:52:53.292Z,99624.57
2019-05-11T23:55:19.539Z,99629.75
2019-05-11T23:57:49.062Z,99620.28
